createdAt,value
2019-03-16T00:00:49.690Z,946.5
2019-03-16T00:03:55.655Z,946.5
2019-03-16T00:07:01.533Z,946.5
2019-03-16T00:10:07.576Z,946.5
2019-03-16T00:13:17.226Z,946.5
2019-03-16T00:16:23.302Z,946.5
2019-03-16T00:19:29.431Z,946.5
2019-03-16T00:22:35.344Z,946.6
2019-03-16T00:25:41.401Z,946.5
2019-03-16T00:28:47.350Z,946.5
2019-03-16T00:31:53.586Z,946.5
2019-03-16T00:34:59.553Z,946.5
2019-03-16T00:38:05.614Z,946.3
2019-03-16T00:41:11.598Z,946.3
2019-03-16T00:44:17.581Z,946.2
2019-03-16T00:47:23.714Z,946.2
2019-03-16T00:50:29.778Z,946.1
2019-03-16T00:53:39.536Z,946
2019-03-16T00:56:45.469Z,946
2019-03-16T00:59:51.428Z,946.1
2019-03-16T01:02:57.392Z,946.1
2019-03-16T01:06:03.452Z,946.1
2019-03-16T01:09:09.429Z,946.2
2019-03-16T01:12:15.465Z,946.2
2019-03-16T01:15:21.539Z,946.2
2019-03-16T01:18:27.495Z,946.2
2019-03-16T01:21:33.386Z,946.3
2019-03-16T01:24:39.415Z,946.1
2019-03-16T01:27:45.376Z,946.1
2019-03-16T01:30:51.348Z,946.1
2019-03-16T01:33:57.391Z,946.1
2019-03-16T01:37:03.276Z,946.1
2019-03-16T01:40:09.342Z,946.2
2019-03-16T01:43:15.480Z,946.3
2019-03-16T01:46:21.469Z,946.3
2019-03-16T01:49:27.605Z,946.3
2019-03-16T01:52:33.490Z,946.4
2019-03-16T01:55:42.391Z,946.5
2019-03-16T01:58:48.451Z,946.4
2019-03-16T02:01:54.407Z,946.4
2019-03-16T02:05:00.424Z,946.5
2019-03-16T02:08:06.381Z,946.5
2019-03-16T02:11:12.391Z,946.5
2019-03-16T02:14:18.275Z,946.5
2019-03-16T02:17:24.139Z,946.4
2019-03-16T02:20:30.067Z,946.5
2019-03-16T02:23:36.016Z,946.4
2019-03-16T02:26:41.977Z,946.3
2019-03-16T02:29:47.936Z,946.4
2019-03-16T02:33:10.984Z,946.3
2019-03-16T02:36:19.213Z,946.2
2019-03-16T02:39:25.403Z,946.3
2019-03-16T02:42:31.492Z,946.2
2019-03-16T02:45:37.710Z,946.3
2019-03-16T02:48:43.589Z,946.3
2019-03-16T02:51:49.680Z,946.1
2019-03-16T02:54:55.701Z,946.1
2019-03-16T02:58:01.684Z,946.2
2019-03-16T03:01:07.608Z,946.1
2019-03-16T03:04:13.628Z,946.1
2019-03-16T03:07:19.629Z,946.2
2019-03-16T03:10:25.794Z,946.2
2019-03-16T03:13:31.758Z,946.3
2019-03-16T03:16:37.816Z,946.3
2019-03-16T03:19:43.800Z,946.1
2019-03-16T03:22:49.842Z,946.2
2019-03-16T03:25:55.839Z,946.2
2019-03-16T03:29:01.962Z,946.1
2019-03-16T03:32:08.005Z,946.2
2019-03-16T03:35:14.479Z,946.1
2019-03-16T03:38:20.484Z,946.2
2019-03-16T03:41:26.520Z,946.2
2019-03-16T03:44:32.503Z,946.3
2019-03-16T03:47:38.700Z,946.3
2019-03-16T03:50:44.815Z,946.3
2019-03-16T03:53:50.752Z,946.2
2019-03-16T03:56:56.821Z,946.2
2019-03-16T04:00:02.885Z,946.2
2019-03-16T04:03:08.925Z,946.2
2019-03-16T04:06:15.006Z,946.2
2019-03-16T04:09:21.062Z,946.2
2019-03-16T04:12:27.186Z,946.1
2019-03-16T04:15:33.165Z,946
2019-03-16T04:18:39.191Z,946
2019-03-16T04:21:45.112Z,945.9
2019-03-16T04:24:53.842Z,945.9
2019-03-16T04:27:59.718Z,945.8
2019-03-16T04:31:05.835Z,945.7
2019-03-16T04:34:11.820Z,945.7
2019-03-16T04:37:33.855Z,945.6
2019-03-16T04:40:45.772Z,945.6
2019-03-16T04:43:51.717Z,945.6
2019-03-16T04:46:57.590Z,945.5
2019-03-16T04:50:03.476Z,945.5
2019-03-16T04:53:09.488Z,945.5
2019-03-16T04:56:15.448Z,945.7
2019-03-16T04:59:21.682Z,945.8
2019-03-16T05:02:30.545Z,946
2019-03-16T05:05:36.544Z,946.2
2019-03-16T05:08:42.564Z,946.3
2019-03-16T05:11:48.526Z,946.4
2019-03-16T05:14:54.588Z,946.4
2019-03-16T05:18:00.544Z,946.5
2019-03-16T05:21:06.607Z,946.4
2019-03-16T05:24:12.491Z,946.4
2019-03-16T05:27:18.422Z,946.2
2019-03-16T05:30:24.492Z,946.3
2019-03-16T05:33:30.444Z,946.5
2019-03-16T05:36:36.558Z,946.5
2019-03-16T05:39:42.575Z,946.5
2019-03-16T05:42:48.529Z,946.4
2019-03-16T05:45:54.487Z,946.3
2019-03-16T05:49:00.429Z,946.4
2019-03-16T05:52:06.406Z,946.5
2019-03-16T05:55:12.322Z,946.5
2019-03-16T05:58:18.225Z,946.4
2019-03-16T06:01:24.287Z,946.5
2019-03-16T06:04:30.163Z,946.6
2019-03-16T06:07:36.114Z,946.7
2019-03-16T06:10:42.029Z,946.8
2019-03-16T06:13:48.021Z,946.9
2019-03-16T06:16:53.991Z,947
2019-03-16T06:19:59.860Z,947.1
2019-03-16T06:23:06.050Z,947.1
2019-03-16T06:26:12.076Z,947.1
2019-03-16T06:29:18.022Z,947
2019-03-16T06:32:24.003Z,947.1
2019-03-16T06:35:30.659Z,947
2019-03-16T06:38:36.579Z,947
2019-03-16T06:41:44.728Z,947
2019-03-16T06:44:50.687Z,947.1
2019-03-16T06:47:56.751Z,947.2
2019-03-16T06:51:02.710Z,947.1
2019-03-16T06:54:08.671Z,947.2
2019-03-16T06:57:14.549Z,947.1
2019-03-16T07:00:20.551Z,947
2019-03-16T07:03:26.424Z,947
2019-03-16T07:06:35.170Z,946.9
2019-03-16T07:09:41.129Z,946.8
2019-03-16T07:12:47.009Z,946.9
2019-03-16T07:15:52.947Z,947
2019-03-16T07:19:00.394Z,947.1
2019-03-16T07:22:06.298Z,947
2019-03-16T07:25:12.181Z,947
2019-03-16T07:28:18.254Z,947.1
2019-03-16T07:31:24.097Z,947.1
2019-03-16T07:34:30.141Z,947.1
2019-03-16T07:37:36.178Z,947.1
2019-03-16T07:40:42.165Z,947.1
2019-03-16T07:43:48.230Z,947
2019-03-16T07:46:54.190Z,947
2019-03-16T07:50:00.406Z,946.9
2019-03-16T07:53:06.331Z,946.9
2019-03-16T07:56:12.263Z,947
2019-03-16T07:59:18.161Z,947.1
2019-03-16T08:02:24.094Z,946.9
2019-03-16T08:05:30.049Z,946.9
2019-03-16T08:08:36.110Z,947.1
2019-03-16T08:11:42.027Z,947
2019-03-16T08:14:48.005Z,947
2019-03-16T08:17:53.874Z,947
2019-03-16T08:20:59.843Z,947
2019-03-16T08:24:05.909Z,946.8
2019-03-16T08:27:11.779Z,946.8
2019-03-16T08:30:17.932Z,946.9
2019-03-16T08:33:27.372Z,946.8
2019-03-16T08:36:33.308Z,946.7
2019-03-16T08:39:39.290Z,946.8
2019-03-16T08:42:45.227Z,946.7
2019-03-16T08:45:54.384Z,946.7
2019-03-16T08:49:00.339Z,946.7
2019-03-16T08:52:06.302Z,946.7
2019-03-16T08:55:12.204Z,946.7
2019-03-16T08:58:18.223Z,946.7
2019-03-16T09:01:24.282Z,946.6
2019-03-16T09:04:30.242Z,946.6
2019-03-16T09:07:38.866Z,946.7
2019-03-16T09:10:44.801Z,946.5
2019-03-16T09:13:50.778Z,946.4
2019-03-16T09:16:56.657Z,946.5
2019-03-16T09:20:02.594Z,946.3
2019-03-16T09:23:08.660Z,946.2
2019-03-16T09:26:14.536Z,946.3
2019-03-16T09:29:20.576Z,946.3
2019-03-16T09:32:26.547Z,946.3
2019-03-16T09:35:32.498Z,946.4
2019-03-16T09:38:38.557Z,946.3
2019-03-16T09:41:44.436Z,946.1
2019-03-16T09:44:50.475Z,946.1
2019-03-16T09:47:56.435Z,946.2
2019-03-16T09:51:02.313Z,946.2
2019-03-16T09:54:08.257Z,946.2
2019-03-16T09:57:14.272Z,946.2
2019-03-16T10:00:20.236Z,946.2
2019-03-16T10:03:26.237Z,946.1
2019-03-16T10:06:32.197Z,946
2019-03-16T10:09:38.186Z,946
2019-03-16T10:12:44.125Z,946
2019-03-16T10:15:50.074Z,946.1
2019-03-16T10:18:55.950Z,946
2019-03-16T10:22:01.992Z,945.9
2019-03-16T10:25:07.873Z,945.8
2019-03-16T10:28:14.016Z,945.7
2019-03-16T10:31:19.892Z,945.6
2019-03-16T10:34:25.984Z,945.6
2019-03-16T10:37:31.886Z,945.8
2019-03-16T10:40:38.005Z,945.9
2019-03-16T10:43:43.917Z,945.9
2019-03-16T10:46:49.862Z,945.7
2019-03-16T10:49:55.838Z,945.7
2019-03-16T10:53:01.816Z,945.6
2019-03-16T10:56:07.758Z,945.4
2019-03-16T10:59:13.655Z,945.5
2019-03-16T11:02:19.682Z,945.3
2019-03-16T11:05:25.662Z,945.4
2019-03-16T11:08:31.705Z,945.4
2019-03-16T11:11:37.807Z,945.3
2019-03-16T11:14:43.687Z,945.3
2019-03-16T11:17:49.673Z,945.3
2019-03-16T11:20:55.599Z,945.4
2019-03-16T11:24:01.750Z,945.4
2019-03-16T11:27:07.860Z,945.3
2019-03-16T11:30:13.894Z,945.3
2019-03-16T11:33:19.883Z,945.2
2019-03-16T11:36:25.850Z,945.3
2019-03-16T11:39:33.461Z,945.2
2019-03-16T11:42:39.518Z,945.2
2019-03-16T11:45:45.462Z,945.3
2019-03-16T11:48:51.340Z,945.2
2019-03-16T11:51:57.277Z,945.1
2019-03-16T11:55:03.237Z,945.1
2019-03-16T11:58:09.115Z,945.1
2019-03-16T12:01:15.158Z,945.3
2019-03-16T12:04:21.038Z,945.3
2019-03-16T12:07:26.986Z,945.2
2019-03-16T12:10:32.937Z,945.2
2019-03-16T12:13:38.812Z,945.3
2019-03-16T12:16:48.133Z,945.2
2019-03-16T12:19:54.009Z,945.2
2019-03-16T12:23:00.057Z,945.2
2019-03-16T12:26:05.930Z,945.2
2019-03-16T12:29:11.876Z,945.1
2019-03-16T12:32:17.884Z,945.1
2019-03-16T12:35:23.943Z,945.2
2019-03-16T12:38:29.957Z,945.2
2019-03-16T12:41:35.967Z,945.1
2019-03-16T12:44:41.846Z,945.1
2019-03-16T12:47:47.835Z,945.2
2019-03-16T12:50:55.733Z,945.1
2019-03-16T12:54:01.750Z,945.2
2019-03-16T12:57:07.619Z,945.2
2019-03-16T13:00:13.616Z,945.3
2019-03-16T13:03:19.840Z,945.3
2019-03-16T13:06:25.860Z,945.3
2019-03-16T13:09:31.801Z,945.4
2019-03-16T13:12:40.332Z,945.4
2019-03-16T13:15:46.280Z,945.4
2019-03-16T13:18:52.442Z,945.3
2019-03-16T13:21:58.505Z,945.4
2019-03-16T13:25:04.566Z,945.3
2019-03-16T13:28:10.447Z,945.4
2019-03-16T13:31:16.386Z,945.4
2019-03-16T13:34:22.264Z,945.5
2019-03-16T13:37:28.305Z,945.5
2019-03-16T13:40:34.366Z,945.5
2019-03-16T13:43:40.366Z,945.6
2019-03-16T13:46:46.385Z,945.6
2019-03-16T13:49:52.405Z,945.6
2019-03-16T13:52:58.305Z,945.5
2019-03-16T13:56:04.265Z,945.6
2019-03-16T13:59:10.862Z,945.6
2019-03-16T14:02:18.702Z,945.5
2019-03-16T14:05:24.703Z,945.5
2019-03-16T14:08:30.597Z,945.4
2019-03-16T14:11:36.523Z,945.5
2019-03-16T14:14:45.455Z,945.5
2019-03-16T14:17:51.948Z,945.6
2019-03-16T14:21:01.800Z,945.6
2019-03-16T14:24:07.656Z,945.6
2019-03-16T14:27:14.064Z,945.6
2019-03-16T14:30:45.229Z,945.7
2019-03-16T14:33:53.961Z,945.7
2019-03-16T14:37:00.095Z,945.6
2019-03-16T14:40:06.056Z,945.7
2019-03-16T14:43:15.545Z,945.8
2019-03-16T14:46:21.420Z,945.7
2019-03-16T14:49:27.470Z,945.9
2019-03-16T14:52:33.483Z,945.9
2019-03-16T14:55:39.488Z,945.9
2019-03-16T14:58:45.365Z,945.8
2019-03-16T15:01:51.403Z,945.8
2019-03-16T15:04:57.363Z,945.9
2019-03-16T15:08:03.428Z,945.8
2019-03-16T15:11:12.254Z,945.8
2019-03-16T15:14:23.226Z,945.8
2019-03-16T15:17:29.200Z,945.9
2019-03-16T15:20:38.025Z,945.9
2019-03-16T15:23:43.973Z,945.9
2019-03-16T15:26:49.859Z,946
2019-03-16T15:29:55.816Z,945.8
2019-03-16T15:33:04.624Z,945.9
2019-03-16T15:36:10.686Z,945.9
2019-03-16T15:39:16.746Z,945.9
2019-03-16T15:42:24.139Z,945.9
2019-03-16T15:45:30.184Z,945.8
2019-03-16T15:48:36.065Z,945.9
2019-03-16T15:51:42.021Z,945.9
2019-03-16T15:54:47.977Z,945.9
2019-03-16T15:58:06.886Z,946
2019-03-16T16:01:14.127Z,946
2019-03-16T16:04:20.004Z,946.1
2019-03-16T16:07:26.081Z,946.1
2019-03-16T16:10:32.104Z,946.1
2019-03-16T16:13:38.065Z,946.2
2019-03-16T16:16:44.131Z,946.2
2019-03-16T16:19:50.011Z,946.2
2019-03-16T16:22:55.943Z,946.2
2019-03-16T16:26:01.909Z,946.3
2019-03-16T16:29:07.968Z,946.3
2019-03-16T16:32:13.891Z,946.4
2019-03-16T16:35:19.887Z,946.5
2019-03-16T16:38:25.763Z,946.5
2019-03-16T16:41:31.812Z,946.5
2019-03-16T16:44:37.967Z,946.6
2019-03-16T16:47:43.976Z,946.6
2019-03-16T16:50:50.147Z,946.7
2019-03-16T16:53:56.014Z,946.8
2019-03-16T16:57:02.119Z,946.8
2019-03-16T17:00:08.077Z,946.8
2019-03-16T17:03:14.033Z,946.8
2019-03-16T17:06:20.097Z,946.8
2019-03-16T17:09:25.983Z,946.7
2019-03-16T17:12:32.067Z,946.9
2019-03-16T17:15:38.075Z,946.9
2019-03-16T17:18:43.981Z,946.9
2019-03-16T17:21:50.015Z,947
2019-03-16T17:24:55.917Z,947.1
2019-03-16T17:28:01.916Z,947.1
2019-03-16T17:31:07.873Z,947.1
2019-03-16T17:34:13.836Z,947.1
2019-03-16T17:37:19.949Z,947.1
2019-03-16T17:40:26.287Z,947.1
2019-03-16T17:43:32.223Z,947.2
2019-03-16T17:46:38.185Z,947.1
2019-03-16T17:49:45.100Z,947.2
2019-03-16T17:52:51.128Z,947.2
2019-03-16T17:55:57.096Z,947.2
2019-03-16T17:59:03.048Z,947.3
2019-03-16T18:02:11.520Z,947.2
2019-03-16T18:05:17.528Z,947.2
2019-03-16T18:08:23.541Z,947.3
2019-03-16T18:11:29.421Z,947.3
2019-03-16T18:14:35.407Z,947.3
2019-03-16T18:17:41.368Z,947.4
2019-03-16T18:20:47.327Z,947.5
2019-03-16T18:23:53.339Z,947.6
2019-03-16T18:26:59.348Z,947.6
2019-03-16T18:30:05.359Z,947.6
2019-03-16T18:33:11.371Z,947.6
2019-03-16T18:36:17.242Z,947.6
2019-03-16T18:39:23.187Z,947.6
2019-03-16T18:42:29.145Z,947.7
2019-03-16T18:45:35.107Z,947.7
2019-03-16T18:48:41.172Z,947.9
2019-03-16T18:51:47.128Z,947.8
2019-03-16T18:54:53.001Z,947.9
2019-03-16T18:57:58.945Z,947.9
2019-03-16T19:01:04.897Z,947.9
2019-03-16T19:04:10.966Z,948
2019-03-16T19:07:16.871Z,948
2019-03-16T19:10:22.883Z,948
2019-03-16T19:13:28.797Z,948
2019-03-16T19:16:34.899Z,948
2019-03-16T19:19:40.972Z,948
2019-03-16T19:22:47.265Z,948.1
2019-03-16T19:25:53.522Z,948.1
2019-03-16T19:28:59.454Z,948.1
2019-03-16T19:32:05.446Z,948.1
2019-03-16T19:35:11.377Z,948.2
2019-03-16T19:38:17.311Z,948.2
2019-03-16T19:41:23.292Z,948.1
2019-03-16T19:44:29.251Z,948.1
2019-03-16T19:47:35.312Z,948
2019-03-16T19:50:41.271Z,948.2
2019-03-16T19:53:47.333Z,948.1
2019-03-16T19:56:53.298Z,948.2
2019-03-16T19:59:59.358Z,948.2
2019-03-16T20:03:05.319Z,948.2
2019-03-16T20:06:11.383Z,948.3
2019-03-16T20:09:31.003Z,948.5
2019-03-16T20:12:37.124Z,948.6
2019-03-16T20:15:45.334Z,948.6
2019-03-16T20:18:51.581Z,948.7
2019-03-16T20:21:57.666Z,948.7
2019-03-16T20:25:03.652Z,948.7
2019-03-16T20:28:09.687Z,948.8
2019-03-16T20:31:15.777Z,948.8
2019-03-16T20:34:21.642Z,948.8
2019-03-16T20:37:27.671Z,948.7
2019-03-16T20:40:33.542Z,948.7
2019-03-16T20:43:39.583Z,948.6
2019-03-16T20:46:46.465Z,948.7
2019-03-16T20:49:52.422Z,948.7
2019-03-16T20:52:58.385Z,948.8
2019-03-16T20:56:04.271Z,948.8
2019-03-16T20:59:10.198Z,948.7
2019-03-16T21:02:16.159Z,948.8
2019-03-16T21:05:22.047Z,948.9
2019-03-16T21:08:27.987Z,948.9
2019-03-16T21:11:33.951Z,948.9
2019-03-16T21:14:39.885Z,949
2019-03-16T21:17:45.858Z,948.9
2019-03-16T21:20:52.040Z,949
2019-03-16T21:23:57.983Z,948.9
2019-03-16T21:27:03.942Z,949.1
2019-03-16T21:30:10.006Z,949.1
2019-03-16T21:33:30.067Z,949.2
2019-03-16T21:36:42.918Z,949.1
2019-03-16T21:39:48.822Z,949.2
2019-03-16T21:42:54.732Z,949.1
2019-03-16T21:46:00.624Z,949.1
2019-03-16T21:49:06.952Z,949.1
2019-03-16T21:52:12.920Z,949.2
2019-03-16T21:55:18.876Z,949.2
2019-03-16T21:58:24.771Z,949.3
2019-03-16T22:01:30.687Z,949.4
2019-03-16T22:04:36.576Z,949.3
2019-03-16T22:07:42.607Z,949.3
2019-03-16T22:10:48.629Z,949.3
2019-03-16T22:13:54.673Z,949.3
2019-03-16T22:17:00.593Z,949.3
2019-03-16T22:20:06.530Z,949.3
2019-03-16T22:23:12.505Z,949.3
2019-03-16T22:26:18.442Z,949.4
2019-03-16T22:29:24.529Z,949.4
2019-03-16T22:32:30.496Z,949.3
2019-03-16T22:35:36.449Z,949.4
2019-03-16T22:38:42.408Z,949.3
2019-03-16T22:41:48.518Z,949.4
2019-03-16T22:44:57.104Z,949.3
2019-03-16T22:48:03.364Z,949.3
2019-03-16T22:51:09.438Z,949.3
2019-03-16T22:54:15.303Z,949.3
2019-03-16T22:57:24.001Z,949.2
2019-03-16T23:00:30.063Z,949.2
2019-03-16T23:03:38.941Z,949.2
2019-03-16T23:06:45.005Z,949.2
2019-03-16T23:09:50.842Z,949.2
2019-03-16T23:12:56.772Z,949.2
2019-03-16T23:16:02.670Z,949.2
2019-03-16T23:19:08.587Z,949.2
2019-03-16T23:22:14.543Z,949.3
2019-03-16T23:25:20.422Z,949.2
2019-03-16T23:28:26.359Z,949.1
2019-03-16T23:31:32.239Z,949.2
2019-03-16T23:34:38.187Z,949.2
2019-03-16T23:37:44.135Z,949.3
2019-03-16T23:40:50.205Z,949.3
2019-03-16T23:43:56.272Z,949.4
2019-03-16T23:47:02.158Z,949.4
2019-03-16T23:50:10.896Z,949.4
2019-03-16T23:53:16.905Z,949.5
2019-03-16T23:56:22.865Z,949.4
2019-03-16T23:59:28.827Z,949.5
